Terminal Aerodrome Forecast
Issued by NWS

Home | Current Version | Previous Version | Text Only | Print | Product List | Glossary On
Versions: 1 2 3 4 5 6 7 8 9 10 11 12 13 14 15 16 17 18 19 20 21 22 23 24 25 26 27 28 29 30
000
FTAK31 PAJK 160538
TAFASI
TAF
PASI 160538Z 1606/1706 VRB03KT 4SM -RA BR SCT007 OVC020
     FM161800 17006KT 6SM -RA SCT015 OVC025
     FM170000 20008KT 4SM -RA BR BKN015 OVC025=

USA.gov is the U.S. government's official web portal to all federal, state and local government web resources and services.